sensor_id;sensor_type;location;lat;lon;timestamp;P1;durP1;ratioP1;P2;durP2;ratioP2
70545;SDS011;58098;51.680;5.134;2022-12-07T00:00:28;18.70;;;10.83;;
70545;SDS011;58098;51.680;5.134;2022-12-07T00:02:53;17.97;;;10.83;;
70545;SDS011;58098;51.680;5.134;2022-12-07T00:05:18;24.03;;;10.53;;
70545;SDS011;58098;51.680;5.134;2022-12-07T00:07:44;20.57;;;10.43;;
70545;SDS011;58098;51.680;5.134;2022-12-07T00:10:09;16.47;;;10.73;;
70545;SDS011;58098;51.680;5.134;2022-12-07T00:12:34;21.37;;;11.00;;
70545;SDS011;58098;51.680;5.134;2022-12-07T00:15:00;20.73;;;10.87;;
70545;SDS011;58098;51.680;5.134;2022-12-07T00:17:25;21.47;;;10.60;;
70545;SDS011;58098;51.680;5.134;2022-12-07T00:19:50;22.10;;;11.07;;
70545;SDS011;58098;51.680;5.134;2022-12-07T00:22:16;20.67;;;10.40;;
70545;SDS011;58098;51.680;5.134;2022-12-07T00:24:41;17.83;;;10.18;;
70545;SDS011;58098;51.680;5.134;2022-12-07T00:27:06;16.47;;;9.67;;
70545;SDS011;58098;51.680;5.134;2022-12-07T00:29:32;16.30;;;9.23;;
70545;SDS011;58098;51.680;5.134;2022-12-07T00:31:57;21.07;;;9.50;;
70545;SDS011;58098;51.680;5.134;2022-12-07T00:34:22;17.37;;;9.60;;
70545;SDS011;58098;51.680;5.134;2022-12-07T00:36:48;16.87;;;9.47;;
70545;SDS011;58098;51.680;5.134;2022-12-07T00:39:13;18.08;;;10.18;;
70545;SDS011;58098;51.680;5.134;2022-12-07T00:41:39;16.17;;;9.77;;
70545;SDS011;58098;51.680;5.134;2022-12-07T00:44:05;15.10;;;9.70;;
70545;SDS011;58098;51.680;5.134;2022-12-07T00:46:30;15.57;;;9.50;;
70545;SDS011;58098;51.680;5.134;2022-12-07T00:48:56;20.33;;;9.07;;
70545;SDS011;58098;51.680;5.134;2022-12-07T00:51:22;18.60;;;9.40;;
70545;SDS011;58098;51.680;5.134;2022-12-07T00:53:48;19.90;;;9.35;;
70545;SDS011;58098;51.680;5.134;2022-12-07T00:56:15;14.57;;;9.25;;
70545;SDS011;58098;51.680;5.134;2022-12-07T00:58:43;14.10;;;8.98;;
70545;SDS011;58098;51.680;5.134;2022-12-07T01:01:09;16.30;;;9.60;;
70545;SDS011;58098;51.680;5.134;2022-12-07T01:03:36;18.33;;;9.82;;
70545;SDS011;58098;51.680;5.134;2022-12-07T01:06:02;23.02;;;10.65;;
70545;SDS011;58098;51.680;5.134;2022-12-07T01:08:28;18.00;;;9.93;;
70545;SDS011;58098;51.680;5.134;2022-12-07T01:10:58;21.30;;;9.73;;
70545;SDS011;58098;51.680;5.134;2022-12-07T01:13:32;19.75;;;8.95;;
70545;SDS011;58098;51.680;5.134;2022-12-07T01:15:59;21.05;;;9.82;;
70545;SDS011;58098;51.680;5.134;2022-12-07T01:18:31;19.88;;;10.82;;
70545;SDS011;58098;51.680;5.134;2022-12-07T01:23:28;17.27;;;9.23;;
70545;SDS011;58098;51.680;5.134;2022-12-07T01:25:57;19.70;;;8.90;;
70545;SDS011;58098;51.680;5.134;2022-12-07T01:28:24;16.27;;;9.35;;
70545;SDS011;58098;51.680;5.134;2022-12-07T01:30:57;15.90;;;9.25;;
70545;SDS011;58098;51.680;5.134;2022-12-07T01:33:22;19.40;;;9.68;;
70545;SDS011;58098;51.680;5.134;2022-12-07T01:35:47;19.33;;;9.90;;
70545;SDS011;58098;51.680;5.134;2022-12-07T01:38:12;18.87;;;8.53;;
70545;SDS011;58098;51.680;5.134;2022-12-07T01:40:38;16.40;;;9.17;;
70545;SDS011;58098;51.680;5.134;2022-12-07T01:43:04;21.27;;;9.53;;
70545;SDS011;58098;51.680;5.134;2022-12-07T01:45:41;16.48;;;9.05;;
70545;SDS011;58098;51.680;5.134;2022-12-07T01:48:07;17.67;;;8.23;;
70545;SDS011;58098;51.680;5.134;2022-12-07T01:50:35;17.60;;;9.43;;
70545;SDS011;58098;51.680;5.134;2022-12-07T01:53:04;17.98;;;9.02;;
70545;SDS011;58098;51.680;5.134;2022-12-07T01:55:34;14.50;;;8.35;;
70545;SDS011;58098;51.680;5.134;2022-12-07T01:58:03;16.57;;;9.17;;
70545;SDS011;58098;51.680;5.134;2022-12-07T02:00:29;15.85;;;8.98;;
70545;SDS011;58098;51.680;5.134;2022-12-07T02:03:38;19.67;;;8.97;;
70545;SDS011;58098;51.680;5.134;2022-12-07T02:05:47;17.00;;;9.52;;
70545;SDS011;58098;51.680;5.134;2022-12-07T02:08:14;15.57;;;9.20;;
70545;SDS011;58098;51.680;5.134;2022-12-07T02:10:39;22.47;;;10.13;;
70545;SDS011;58098;51.680;5.134;2022-12-07T02:18:09;14.73;;;7.50;;
70545;SDS011;58098;51.680;5.134;2022-12-07T02:21:08;14.70;;;7.75;;
70545;SDS011;58098;51.680;5.134;2022-12-07T02:24:13;14.30;;;6.93;;
70545;SDS011;58098;51.680;5.134;2022-12-07T02:29:34;16.42;;;7.18;;
70545;SDS011;58098;51.680;5.134;2022-12-07T02:34:50;18.98;;;6.82;;
70545;SDS011;58098;51.680;5.134;2022-12-07T02:37:33;13.83;;;5.30;;
70545;SDS011;58098;51.680;5.134;2022-12-07T02:40:08;12.02;;;5.65;;
70545;SDS011;58098;51.680;5.134;2022-12-07T02:42:43;16.20;;;5.93;;
70545;SDS011;58098;51.680;5.134;2022-12-07T02:45:17;13.93;;;4.97;;
70545;SDS011;58098;51.680;5.134;2022-12-07T02:47:46;15.48;;;5.15;;
70545;SDS011;58098;51.680;5.134;2022-12-07T02:50:16;11.37;;;5.17;;
70545;SDS011;58098;51.680;5.134;2022-12-07T02:52:44;15.13;;;5.60;;
70545;SDS011;58098;51.680;5.134;2022-12-07T02:55:09;11.73;;;6.17;;
70545;SDS011;58098;51.680;5.134;2022-12-07T03:00:15;10.88;;;4.80;;
70545;SDS011;58098;51.680;5.134;2022-12-07T03:02:50;11.47;;;4.67;;
70545;SDS011;58098;51.680;5.134;2022-12-07T03:05:22;17.02;;;5.20;;
70545;SDS011;58098;51.680;5.134;2022-12-07T03:08:13;13.40;;;4.63;;
70545;SDS011;58098;51.680;5.134;2022-12-07T03:19:06;11.75;;;3.95;;
70545;SDS011;58098;51.680;5.134;2022-12-07T03:21:42;12.13;;;3.88;;
70545;SDS011;58098;51.680;5.134;2022-12-07T03:24:15;15.23;;;3.92;;
70545;SDS011;58098;51.680;5.134;2022-12-07T03:26:45;8.63;;;3.70;;
70545;SDS011;58098;51.680;5.134;2022-12-07T03:29:19;9.43;;;3.73;;
70545;SDS011;58098;51.680;5.134;2022-12-07T03:31:51;9.45;;;3.67;;
70545;SDS011;58098;51.680;5.134;2022-12-07T03:34:34;7.95;;;3.83;;
70545;SDS011;58098;51.680;5.134;2022-12-07T03:37:11;10.05;;;3.50;;
70545;SDS011;58098;51.680;5.134;2022-12-07T03:39:47;10.52;;;3.78;;
70545;SDS011;58098;51.680;5.134;2022-12-07T03:42:22;11.97;;;3.07;;
70545;SDS011;58098;51.680;5.134;2022-12-07T03:44:48;8.25;;;3.25;;
70545;SDS011;58098;51.680;5.134;2022-12-07T03:50:31;10.18;;;3.67;;
70545;SDS011;58098;51.680;5.134;2022-12-07T03:53:01;11.00;;;3.33;;
70545;SDS011;58098;51.680;5.134;2022-12-07T03:55:34;7.67;;;3.10;;
70545;SDS011;58098;51.680;5.134;2022-12-07T03:58:06;12.23;;;3.70;;
70545;SDS011;58098;51.680;5.134;2022-12-07T04:00:34;11.43;;;3.10;;
70545;SDS011;58098;51.680;5.134;2022-12-07T04:03:00;8.37;;;3.50;;
70545;SDS011;58098;51.680;5.134;2022-12-07T04:05:25;9.67;;;3.40;;
70545;SDS011;58098;51.680;5.134;2022-12-07T04:07:51;10.45;;;3.65;;
70545;SDS011;58098;51.680;5.134;2022-12-07T04:10:16;13.73;;;4.60;;
70545;SDS011;58098;51.680;5.134;2022-12-07T04:12:42;11.43;;;3.90;;
70545;SDS011;58098;51.680;5.134;2022-12-07T04:15:08;15.30;;;3.60;;
70545;SDS011;58098;51.680;5.134;2022-12-07T04:17:33;11.32;;;4.30;;
70545;SDS011;58098;51.680;5.134;2022-12-07T04:19:59;17.17;;;4.80;;
70545;SDS011;58098;51.680;5.134;2022-12-07T04:22:24;11.00;;;4.83;;
70545;SDS011;58098;51.680;5.134;2022-12-07T04:24:49;11.97;;;5.30;;
70545;SDS011;58098;51.680;5.134;2022-12-07T04:27:15;18.03;;;6.07;;
70545;SDS011;58098;51.680;5.134;2022-12-07T04:29:40;16.77;;;5.57;;
70545;SDS011;58098;51.680;5.134;2022-12-07T04:32:05;18.73;;;5.27;;
70545;SDS011;58098;51.680;5.134;2022-12-07T04:34:31;19.53;;;5.37;;
70545;SDS011;58098;51.680;5.134;2022-12-07T04:36:56;8.00;;;4.67;;
70545;SDS011;58098;51.680;5.134;2022-12-07T04:39:26;18.02;;;5.45;;
70545;SDS011;58098;51.680;5.134;2022-12-07T04:41:56;12.97;;;4.63;;
70545;SDS011;58098;51.680;5.134;2022-12-07T04:44:22;13.18;;;5.22;;
70545;SDS011;58098;51.680;5.134;2022-12-07T04:46:49;9.38;;;5.07;;
70545;SDS011;58098;51.680;5.134;2022-12-07T04:49:15;11.97;;;5.30;;
70545;SDS011;58098;51.680;5.134;2022-12-07T04:51:41;12.85;;;5.50;;
70545;SDS011;58098;51.680;5.134;2022-12-07T04:54:06;16.20;;;6.53;;
70545;SDS011;58098;51.680;5.134;2022-12-07T04:56:32;12.30;;;6.30;;
70545;SDS011;58098;51.680;5.134;2022-12-07T04:59:00;15.18;;;7.43;;
70545;SDS011;58098;51.680;5.134;2022-12-07T05:01:25;23.50;;;7.73;;
70545;SDS011;58098;51.680;5.134;2022-12-07T05:03:51;18.00;;;8.17;;
70545;SDS011;58098;51.680;5.134;2022-12-07T05:06:16;20.87;;;9.23;;
70545;SDS011;58098;51.680;5.134;2022-12-07T05:08:42;16.95;;;9.38;;
70545;SDS011;58098;51.680;5.134;2022-12-07T05:11:08;16.80;;;10.87;;
70545;SDS011;58098;51.680;5.134;2022-12-07T05:13:35;18.02;;;9.93;;
70545;SDS011;58098;51.680;5.134;2022-12-07T05:16:01;16.95;;;10.10;;
70545;SDS011;58098;51.680;5.134;2022-12-07T05:18:27;21.95;;;10.20;;
70545;SDS011;58098;51.680;5.134;2022-12-07T05:20:52;27.93;;;10.03;;
70545;SDS011;58098;51.680;5.134;2022-12-07T05:23:17;19.93;;;10.27;;
70545;SDS011;58098;51.680;5.134;2022-12-07T05:25:43;20.00;;;10.25;;
70545;SDS011;58098;51.680;5.134;2022-12-07T05:28:10;19.40;;;9.70;;
70545;SDS011;58098;51.680;5.134;2022-12-07T05:30:35;19.00;;;9.73;;
70545;SDS011;58098;51.680;5.134;2022-12-07T05:33:01;24.83;;;10.40;;
70545;SDS011;58098;51.680;5.134;2022-12-07T05:35:27;19.27;;;9.63;;
70545;SDS011;58098;51.680;5.134;2022-12-07T05:37:53;18.37;;;8.90;;
70545;SDS011;58098;51.680;5.134;2022-12-07T05:40:18;16.50;;;9.47;;
70545;SDS011;58098;51.680;5.134;2022-12-07T05:42:44;24.87;;;9.87;;
70545;SDS011;58098;51.680;5.134;2022-12-07T05:45:10;20.58;;;9.85;;
70545;SDS011;58098;51.680;5.134;2022-12-07T05:47:37;18.88;;;9.45;;
70545;SDS011;58098;51.680;5.134;2022-12-07T05:50:04;24.65;;;10.75;;
70545;SDS011;58098;51.680;5.134;2022-12-07T05:52:30;19.63;;;11.83;;
70545;SDS011;58098;51.680;5.134;2022-12-07T05:54:55;22.98;;;11.50;;
70545;SDS011;58098;51.680;5.134;2022-12-07T05:57:21;25.93;;;11.23;;
70545;SDS011;58098;51.680;5.134;2022-12-07T05:59:46;19.87;;;10.07;;
70545;SDS011;58098;51.680;5.134;2022-12-07T06:02:12;24.10;;;10.57;;
70545;SDS011;58098;51.680;5.134;2022-12-07T06:04:40;24.27;;;12.00;;
70545;SDS011;58098;51.680;5.134;2022-12-07T06:07:08;19.17;;;11.60;;
70545;SDS011;58098;51.680;5.134;2022-12-07T06:09:34;22.13;;;11.05;;
70545;SDS011;58098;51.680;5.134;2022-12-07T06:11:59;20.60;;;10.40;;
70545;SDS011;58098;51.680;5.134;2022-12-07T06:14:44;23.05;;;10.55;;
70545;SDS011;58098;51.680;5.134;2022-12-07T06:17:09;18.53;;;11.20;;
70545;SDS011;58098;51.680;5.134;2022-12-07T06:19:35;20.17;;;10.82;;
70545;SDS011;58098;51.680;5.134;2022-12-07T06:22:01;24.33;;;11.67;;
70545;SDS011;58098;51.680;5.134;2022-12-07T06:24:26;24.17;;;11.05;;
70545;SDS011;58098;51.680;5.134;2022-12-07T06:26:52;24.40;;;11.77;;
70545;SDS011;58098;51.680;5.134;2022-12-07T06:29:17;26.00;;;11.90;;
70545;SDS011;58098;51.680;5.134;2022-12-07T06:31:44;20.02;;;11.30;;
70545;SDS011;58098;51.680;5.134;2022-12-07T06:34:10;26.97;;;11.33;;
70545;SDS011;58098;51.680;5.134;2022-12-07T06:36:37;20.35;;;10.43;;
70545;SDS011;58098;51.680;5.134;2022-12-07T06:39:03;23.80;;;11.18;;
70545;SDS011;58098;51.680;5.134;2022-12-07T06:41:30;24.10;;;10.73;;
70545;SDS011;58098;51.680;5.134;2022-12-07T06:43:55;26.70;;;12.27;;
70545;SDS011;58098;51.680;5.134;2022-12-07T06:46:20;27.00;;;11.30;;
70545;SDS011;58098;51.680;5.134;2022-12-07T06:48:46;24.87;;;11.87;;
70545;SDS011;58098;51.680;5.134;2022-12-07T06:51:11;22.17;;;11.23;;
70545;SDS011;58098;51.680;5.134;2022-12-07T06:53:37;26.75;;;11.20;;
70545;SDS011;58098;51.680;5.134;2022-12-07T06:56:03;22.57;;;11.57;;
70545;SDS011;58098;51.680;5.134;2022-12-07T06:58:29;21.10;;;10.73;;
70545;SDS011;58098;51.680;5.134;2022-12-07T07:00:55;21.33;;;11.00;;
70545;SDS011;58098;51.680;5.134;2022-12-07T07:03:20;18.67;;;10.00;;
70545;SDS011;58098;51.680;5.134;2022-12-07T07:05:46;16.15;;;9.52;;
70545;SDS011;58098;51.680;5.134;2022-12-07T07:08:11;21.93;;;10.10;;
70545;SDS011;58098;51.680;5.134;2022-12-07T07:10:37;22.53;;;10.77;;
70545;SDS011;58098;51.680;5.134;2022-12-07T07:13:02;20.95;;;9.95;;
70545;SDS011;58098;51.680;5.134;2022-12-07T07:15:28;22.00;;;10.87;;
70545;SDS011;58098;51.680;5.134;2022-12-07T07:17:54;21.48;;;9.93;;
70545;SDS011;58098;51.680;5.134;2022-12-07T07:20:19;25.90;;;9.87;;
70545;SDS011;58098;51.680;5.134;2022-12-07T07:22:44;21.30;;;9.73;;
70545;SDS011;58098;51.680;5.134;2022-12-07T07:25:10;20.83;;;9.70;;
70545;SDS011;58098;51.680;5.134;2022-12-07T07:27:35;20.83;;;9.60;;
70545;SDS011;58098;51.680;5.134;2022-12-07T07:30:01;19.98;;;9.80;;
70545;SDS011;58098;51.680;5.134;2022-12-07T07:32:26;23.07;;;9.77;;
70545;SDS011;58098;51.680;5.134;2022-12-07T07:34:51;25.23;;;8.53;;
70545;SDS011;58098;51.680;5.134;2022-12-07T07:37:17;16.37;;;8.90;;
70545;SDS011;58098;51.680;5.134;2022-12-07T07:39:42;15.53;;;8.40;;
70545;SDS011;58098;51.680;5.134;2022-12-07T07:42:07;23.83;;;8.63;;
70545;SDS011;58098;51.680;5.134;2022-12-07T07:44:35;16.90;;;7.97;;
70545;SDS011;58098;51.680;5.134;2022-12-07T07:47:01;18.27;;;7.55;;
70545;SDS011;58098;51.680;5.134;2022-12-07T07:49:26;19.73;;;8.30;;
70545;SDS011;58098;51.680;5.134;2022-12-07T07:51:54;16.83;;;7.40;;
70545;SDS011;58098;51.680;5.134;2022-12-07T07:54:19;16.00;;;8.23;;
70545;SDS011;58098;51.680;5.134;2022-12-07T07:56:45;24.97;;;7.87;;
70545;SDS011;58098;51.680;5.134;2022-12-07T07:59:10;18.27;;;8.33;;
70545;SDS011;58098;51.680;5.134;2022-12-07T08:01:35;21.38;;;8.45;;
70545;SDS011;58098;51.680;5.134;2022-12-07T08:04:01;17.97;;;7.60;;
70545;SDS011;58098;51.680;5.134;2022-12-07T08:06:26;21.30;;;8.17;;
70545;SDS011;58098;51.680;5.134;2022-12-07T08:08:51;20.17;;;8.13;;
70545;SDS011;58098;51.680;5.134;2022-12-07T08:11:17;14.90;;;7.90;;
70545;SDS011;58098;51.680;5.134;2022-12-07T08:13:44;20.88;;;8.15;;
70545;SDS011;58098;51.680;5.134;2022-12-07T08:16:11;19.52;;;8.45;;
70545;SDS011;58098;51.680;5.134;2022-12-07T08:18:37;25.30;;;8.40;;
70545;SDS011;58098;51.680;5.134;2022-12-07T08:21:04;19.33;;;8.75;;
70545;SDS011;58098;51.680;5.134;2022-12-07T08:23:30;21.77;;;9.27;;
70545;SDS011;58098;51.680;5.134;2022-12-07T08:26:00;23.48;;;8.85;;
70545;SDS011;58098;51.680;5.134;2022-12-07T08:28:27;21.25;;;8.68;;
70545;SDS011;58098;51.680;5.134;2022-12-07T08:30:58;24.50;;;8.43;;
70545;SDS011;58098;51.680;5.134;2022-12-07T08:33:30;18.85;;;8.68;;
70545;SDS011;58098;51.680;5.134;2022-12-07T08:36:09;18.42;;;9.27;;
70545;SDS011;58098;51.680;5.134;2022-12-07T08:38:35;18.13;;;9.25;;
70545;SDS011;58098;51.680;5.134;2022-12-07T08:41:02;18.60;;;9.33;;
70545;SDS011;58098;51.680;5.134;2022-12-07T08:43:28;14.73;;;8.43;;
70545;SDS011;58098;51.680;5.134;2022-12-07T08:48:38;19.20;;;8.45;;
70545;SDS011;58098;51.680;5.134;2022-12-07T08:51:08;22.63;;;9.38;;
70545;SDS011;58098;51.680;5.134;2022-12-07T08:53:33;21.23;;;9.57;;
70545;SDS011;58098;51.680;5.134;2022-12-07T08:56:00;23.05;;;9.75;;
70545;SDS011;58098;51.680;5.134;2022-12-07T08:58:26;26.57;;;10.23;;
70545;SDS011;58098;51.680;5.134;2022-12-07T09:00:51;20.97;;;10.20;;
70545;SDS011;58098;51.680;5.134;2022-12-07T09:03:17;19.93;;;10.17;;
70545;SDS011;58098;51.680;5.134;2022-12-07T09:05:42;27.47;;;10.37;;
70545;SDS011;58098;51.680;5.134;2022-12-07T09:08:07;23.03;;;9.73;;
70545;SDS011;58098;51.680;5.134;2022-12-07T09:10:33;21.90;;;10.32;;
70545;SDS011;58098;51.680;5.134;2022-12-07T09:12:58;20.03;;;9.93;;
70545;SDS011;58098;51.680;5.134;2022-12-07T09:15:26;18.00;;;10.53;;
70545;SDS011;58098;51.680;5.134;2022-12-07T09:17:52;23.45;;;10.75;;
70545;SDS011;58098;51.680;5.134;2022-12-07T09:20:18;23.70;;;10.60;;
70545;SDS011;58098;51.680;5.134;2022-12-07T09:22:43;24.50;;;10.53;;
70545;SDS011;58098;51.680;5.134;2022-12-07T09:25:08;19.27;;;10.33;;
70545;SDS011;58098;51.680;5.134;2022-12-07T09:27:33;20.97;;;10.03;;
70545;SDS011;58098;51.680;5.134;2022-12-07T09:29:59;21.67;;;10.87;;
70545;SDS011;58098;51.680;5.134;2022-12-07T09:32:24;28.63;;;11.33;;
70545;SDS011;58098;51.680;5.134;2022-12-07T09:34:49;25.67;;;11.00;;
70545;SDS011;58098;51.680;5.134;2022-12-07T09:37:15;25.77;;;10.97;;
70545;SDS011;58098;51.680;5.134;2022-12-07T09:39:40;33.77;;;12.83;;
70545;SDS011;58098;51.680;5.134;2022-12-07T09:42:06;25.08;;;12.32;;
70545;SDS011;58098;51.680;5.134;2022-12-07T09:44:32;21.02;;;11.30;;
70545;SDS011;58098;51.680;5.134;2022-12-07T09:46:59;19.70;;;11.57;;
70545;SDS011;58098;51.680;5.134;2022-12-07T09:49:27;23.57;;;10.83;;
70545;SDS011;58098;51.680;5.134;2022-12-07T09:54:33;23.90;;;10.00;;
70545;SDS011;58098;51.680;5.134;2022-12-07T09:57:01;21.00;;;10.95;;
70545;SDS011;58098;51.680;5.134;2022-12-07T09:59:27;22.03;;;10.23;;
70545;SDS011;58098;51.680;5.134;2022-12-07T10:01:52;25.27;;;10.63;;
70545;SDS011;58098;51.680;5.134;2022-12-07T10:04:22;28.20;;;11.00;;
70545;SDS011;58098;51.680;5.134;2022-12-07T10:06:49;21.13;;;10.15;;
70545;SDS011;58098;51.680;5.134;2022-12-07T10:09:17;20.35;;;10.60;;
70545;SDS011;58098;51.680;5.134;2022-12-07T10:12:00;19.80;;;10.55;;
70545;SDS011;58098;51.680;5.134;2022-12-07T10:14:31;22.88;;;10.20;;
70545;SDS011;58098;51.680;5.134;2022-12-07T10:16:58;26.57;;;10.90;;
70545;SDS011;58098;51.680;5.134;2022-12-07T10:19:25;22.67;;;11.43;;
70545;SDS011;58098;51.680;5.134;2022-12-07T10:22:03;28.60;;;11.00;;
70545;SDS011;58098;51.680;5.134;2022-12-07T10:24:36;19.23;;;9.88;;
70545;SDS011;58098;51.680;5.134;2022-12-07T10:27:04;21.83;;;10.05;;
70545;SDS011;58098;51.680;5.134;2022-12-07T10:29:31;16.83;;;9.83;;
70545;SDS011;58098;51.680;5.134;2022-12-07T10:32:01;25.13;;;9.68;;
70545;SDS011;58098;51.680;5.134;2022-12-07T10:34:39;23.92;;;9.57;;
70545;SDS011;58098;51.680;5.134;2022-12-07T10:37:14;19.73;;;9.43;;
70545;SDS011;58098;51.680;5.134;2022-12-07T10:39:55;19.45;;;8.98;;
70545;SDS011;58098;51.680;5.134;2022-12-07T10:42:28;21.97;;;9.37;;
70545;SDS011;58098;51.680;5.134;2022-12-07T10:47:35;19.83;;;8.35;;
70545;SDS011;58098;51.680;5.134;2022-12-07T10:50:14;15.60;;;7.35;;
70545;SDS011;58098;51.680;5.134;2022-12-07T10:55:16;15.63;;;6.57;;
70545;SDS011;58098;51.680;5.134;2022-12-07T11:00:15;17.08;;;6.20;;
70545;SDS011;58098;51.680;5.134;2022-12-07T11:08:02;12.30;;;4.47;;
70545;SDS011;58098;51.680;5.134;2022-12-07T11:16:24;9.15;;;4.55;;
70545;SDS011;58098;51.680;5.134;2022-12-07T11:21:34;18.35;;;4.40;;
70545;SDS011;58098;51.680;5.134;2022-12-07T11:24:11;14.17;;;4.23;;
70545;SDS011;58098;51.680;5.134;2022-12-07T11:26:46;9.18;;;4.25;;
70545;SDS011;58098;51.680;5.134;2022-12-07T11:29:25;9.63;;;3.63;;
70545;SDS011;58098;51.680;5.134;2022-12-07T11:32:23;11.40;;;3.38;;
70545;SDS011;58098;51.680;5.134;2022-12-07T11:35:05;8.68;;;3.00;;
70545;SDS011;58098;51.680;5.134;2022-12-07T11:37:36;10.03;;;3.17;;
70545;SDS011;58098;51.680;5.134;2022-12-07T11:40:05;12.43;;;3.65;;
70545;SDS011;58098;51.680;5.134;2022-12-07T11:42:52;10.45;;;2.88;;
70545;SDS011;58098;51.680;5.134;2022-12-07T11:45:23;11.18;;;3.08;;
70545;SDS011;58098;51.680;5.134;2022-12-07T11:50:43;6.07;;;3.10;;
70545;SDS011;58098;51.680;5.134;2022-12-07T11:53:17;8.23;;;3.20;;
70545;SDS011;58098;51.680;5.134;2022-12-07T12:03:40;8.00;;;2.67;;
70545;SDS011;58098;51.680;5.134;2022-12-07T12:06:09;8.40;;;2.55;;
70545;SDS011;58098;51.680;5.134;2022-12-07T12:08:36;8.23;;;2.80;;
70545;SDS011;58098;51.680;5.134;2022-12-07T12:11:20;5.35;;;2.90;;
70545;SDS011;58098;51.680;5.134;2022-12-07T12:20:13;10.25;;;3.17;;
70545;SDS011;58098;51.680;5.134;2022-12-07T12:22:51;7.70;;;3.13;;
70545;SDS011;58098;51.680;5.134;2022-12-07T12:27:58;10.18;;;3.05;;
70545;SDS011;58098;51.680;5.134;2022-12-07T12:30:37;8.02;;;3.00;;
70545;SDS011;58098;51.680;5.134;2022-12-07T12:33:14;4.80;;;2.42;;
70545;SDS011;58098;51.680;5.134;2022-12-07T12:44:03;7.13;;;3.40;;
70545;SDS011;58098;51.680;5.134;2022-12-07T12:55:10;6.82;;;3.05;;
70545;SDS011;58098;51.680;5.134;2022-12-07T12:57:36;6.50;;;2.80;;
70545;SDS011;58098;51.680;5.134;2022-12-07T13:00:18;7.97;;;3.57;;
70545;SDS011;58098;51.680;5.134;2022-12-07T13:02:50;7.78;;;3.03;;
70545;SDS011;58098;51.680;5.134;2022-12-07T13:05:19;11.05;;;3.33;;
70545;SDS011;58098;51.680;5.134;2022-12-07T13:15:35;7.85;;;2.55;;
70545;SDS011;58098;51.680;5.134;2022-12-07T13:20:40;9.40;;;3.00;;
70545;SDS011;58098;51.680;5.134;2022-12-07T13:28:38;12.30;;;3.45;;
70545;SDS011;58098;51.680;5.134;2022-12-07T13:33:36;4.43;;;2.28;;
70545;SDS011;58098;51.680;5.134;2022-12-07T13:36:02;4.87;;;2.40;;
70545;SDS011;58098;51.680;5.134;2022-12-07T13:38:29;6.00;;;2.85;;
70545;SDS011;58098;51.680;5.134;2022-12-07T13:41:04;4.47;;;2.63;;
70545;SDS011;58098;51.680;5.134;2022-12-07T13:46:18;4.00;;;1.90;;
70545;SDS011;58098;51.680;5.134;2022-12-07T13:48:49;2.80;;;1.90;;
70545;SDS011;58098;51.680;5.134;2022-12-07T13:51:17;6.97;;;2.45;;
70545;SDS011;58098;51.680;5.134;2022-12-07T13:53:55;2.25;;;2.10;;
70545;SDS011;58098;51.680;5.134;2022-12-07T13:56:28;4.90;;;1.97;;
70545;SDS011;58098;51.680;5.134;2022-12-07T13:58:59;3.72;;;2.03;;
70545;SDS011;58098;51.680;5.134;2022-12-07T14:01:25;8.02;;;2.30;;
70545;SDS011;58098;51.680;5.134;2022-12-07T14:06:59;6.47;;;2.10;;
70545;SDS011;58098;51.680;5.134;2022-12-07T14:09:27;4.33;;;2.20;;
70545;SDS011;58098;51.680;5.134;2022-12-07T14:11:54;4.35;;;2.00;;
70545;SDS011;58098;51.680;5.134;2022-12-07T14:14:22;4.57;;;2.13;;
70545;SDS011;58098;51.680;5.134;2022-12-07T14:16:58;2.78;;;2.03;;
70545;SDS011;58098;51.680;5.134;2022-12-07T14:19:41;3.75;;;2.42;;
70545;SDS011;58098;51.680;5.134;2022-12-07T14:27:29;6.10;;;2.20;;
70545;SDS011;58098;51.680;5.134;2022-12-07T14:29:58;2.72;;;2.10;;
70545;SDS011;58098;51.680;5.134;2022-12-07T14:32:25;4.73;;;2.13;;
70545;SDS011;58098;51.680;5.134;2022-12-07T14:35:08;2.78;;;2.20;;
70545;SDS011;58098;51.680;5.134;2022-12-07T14:37:35;9.00;;;2.33;;
70545;SDS011;58098;51.680;5.134;2022-12-07T14:40:02;4.78;;;2.30;;
70545;SDS011;58098;51.680;5.134;2022-12-07T14:42:28;4.23;;;2.30;;
70545;SDS011;58098;51.680;5.134;2022-12-07T14:44:55;2.85;;;2.50;;
70545;SDS011;58098;51.680;5.134;2022-12-07T14:47:22;4.20;;;2.30;;
70545;SDS011;58098;51.680;5.134;2022-12-07T14:49:48;3.93;;;2.70;;
70545;SDS011;58098;51.680;5.134;2022-12-07T14:52:14;5.53;;;2.83;;
70545;SDS011;58098;51.680;5.134;2022-12-07T14:54:42;6.60;;;3.30;;
70545;SDS011;58098;51.680;5.134;2022-12-07T14:57:08;5.27;;;2.47;;
70545;SDS011;58098;51.680;5.134;2022-12-07T14:59:35;6.55;;;2.55;;
70545;SDS011;58098;51.680;5.134;2022-12-07T15:02:00;6.77;;;3.17;;
70545;SDS011;58098;51.680;5.134;2022-12-07T15:04:26;8.35;;;2.88;;
70545;SDS011;58098;51.680;5.134;2022-12-07T15:06:55;11.27;;;3.20;;
70545;SDS011;58098;51.680;5.134;2022-12-07T15:09:24;11.97;;;3.10;;
70545;SDS011;58098;51.680;5.134;2022-12-07T15:11:49;7.85;;;3.38;;
70545;SDS011;58098;51.680;5.134;2022-12-07T15:14:15;5.43;;;3.10;;
70545;SDS011;58098;51.680;5.134;2022-12-07T15:16:41;3.87;;;2.90;;
70545;SDS011;58098;51.680;5.134;2022-12-07T15:19:17;5.60;;;2.90;;
70545;SDS011;58098;51.680;5.134;2022-12-07T15:21:45;4.90;;;2.67;;
70545;SDS011;58098;51.680;5.134;2022-12-07T15:24:11;6.20;;;3.13;;
70545;SDS011;58098;51.680;5.134;2022-12-07T15:26:37;7.38;;;3.20;;
70545;SDS011;58098;51.680;5.134;2022-12-07T15:29:04;5.90;;;3.20;;
70545;SDS011;58098;51.680;5.134;2022-12-07T15:31:31;5.37;;;3.13;;
70545;SDS011;58098;51.680;5.134;2022-12-07T15:33:56;9.23;;;3.22;;
70545;SDS011;58098;51.680;5.134;2022-12-07T15:36:23;10.37;;;3.17;;
70545;SDS011;58098;51.680;5.134;2022-12-07T15:38:51;6.10;;;3.20;;
70545;SDS011;58098;51.680;5.134;2022-12-07T15:41:17;6.50;;;3.70;;
70545;SDS011;58098;51.680;5.134;2022-12-07T15:43:43;9.43;;;4.70;;
70545;SDS011;58098;51.680;5.134;2022-12-07T15:46:31;14.70;;;5.28;;
70545;SDS011;58098;51.680;5.134;2022-12-07T15:48:58;8.13;;;5.07;;
70545;SDS011;58098;51.680;5.134;2022-12-07T15:51:24;9.02;;;4.80;;
70545;SDS011;58098;51.680;5.134;2022-12-07T15:53:49;10.40;;;4.67;;
70545;SDS011;58098;51.680;5.134;2022-12-07T15:56:15;12.60;;;5.22;;
70545;SDS011;58098;51.680;5.134;2022-12-07T15:58:40;11.47;;;4.90;;
70545;SDS011;58098;51.680;5.134;2022-12-07T16:01:16;8.03;;;5.43;;
70545;SDS011;58098;51.680;5.134;2022-12-07T16:03:43;9.95;;;5.55;;
70545;SDS011;58098;51.680;5.134;2022-12-07T16:06:10;10.98;;;5.55;;
70545;SDS011;58098;51.680;5.134;2022-12-07T16:08:36;11.43;;;6.30;;
70545;SDS011;58098;51.680;5.134;2022-12-07T16:11:07;10.73;;;6.05;;
70545;SDS011;58098;51.680;5.134;2022-12-07T16:13:33;10.30;;;5.28;;
70545;SDS011;58098;51.680;5.134;2022-12-07T16:16:03;8.13;;;5.13;;
70545;SDS011;58098;51.680;5.134;2022-12-07T16:18:30;9.50;;;5.53;;
70545;SDS011;58098;51.680;5.134;2022-12-07T16:20:55;12.23;;;6.13;;
70545;SDS011;58098;51.680;5.134;2022-12-07T16:23:20;9.32;;;5.30;;
70545;SDS011;58098;51.680;5.134;2022-12-07T16:25:46;10.13;;;5.60;;
70545;SDS011;58098;51.680;5.134;2022-12-07T16:28:11;6.90;;;5.07;;
70545;SDS011;58098;51.680;5.134;2022-12-07T16:30:36;9.67;;;6.00;;
70545;SDS011;58098;51.680;5.134;2022-12-07T16:33:02;14.10;;;6.30;;
70545;SDS011;58098;51.680;5.134;2022-12-07T16:35:27;8.97;;;6.47;;
70545;SDS011;58098;51.680;5.134;2022-12-07T16:37:52;11.87;;;6.27;;
70545;SDS011;58098;51.680;5.134;2022-12-07T16:40:17;11.20;;;6.40;;